Time;durP1;ratioP1;P1;durP2;ratioP2;P2;SDS_P1;SDS_P2;PMS_P1;PMS_P2;Temp;Humidity;BMP_temperature;BMP_pressure;BME280_temperature;BME280_humidity;BME280_pressure;Samples;Min_cycle;Max_cycle;Signal;HPM_P1;HPM_P2
2024/01/08 00:00:34;;;;;;;16.00;7.03;;;-9.40;99.90;;;;;;5033702;28;20200;-78
2024/01/08 00:03:22;;;;;;;16.63;7.40;;;-9.30;99.90;;;;;;5032016;28;20223;-78
2024/01/08 00:06:09;;;;;;;17.43;7.10;;;-9.30;99.90;;;;;;5032462;28;20232;-79
2024/01/08 00:08:57;;;;;;;17.80;7.23;;;-9.30;99.90;;;;;;5031343;28;20668;-78
2024/01/08 00:11:44;;;;;;;18.30;7.03;;;-9.20;99.90;;;;;;5033278;28;20304;-78
2024/01/08 00:14:32;;;;;;;16.60;6.77;;;-9.20;99.90;;;;;;5033186;28;20610;-78
2024/01/08 00:17:19;;;;;;;15.10;7.23;;;-9.20;99.90;;;;;;5033665;28;20663;-78
2024/01/08 00:20:09;;;;;;;20.13;8.17;;;-9.20;99.90;;;;;;5032930;28;20298;-78
2024/01/08 00:22:56;;;;;;;18.93;7.97;;;-9.30;99.90;;;;;;5033094;28;20311;-78
2024/01/08 00:25:44;;;;;;;18.97;7.97;;;-9.30;99.90;;;;;;5031873;28;20202;-78
2024/01/08 00:28:32;;;;;;;19.97;7.87;;;-9.30;99.90;;;;;;5031827;28;20197;-77
2024/01/08 00:31:19;;;;;;;19.80;8.27;;;-9.40;99.90;;;;;;5031755;28;20193;-78
2024/01/08 00:34:08;;;;;;;18.40;7.90;;;-9.30;99.90;;;;;;5031459;28;20279;-78
2024/01/08 00:36:55;;;;;;;18.87;7.70;;;-9.30;99.90;;;;;;5032719;28;20192;-78
2024/01/08 00:39:43;;;;;;;16.53;7.63;;;-9.30;99.90;;;;;;5033053;28;20201;-78
2024/01/08 00:42:31;;;;;;;18.03;7.50;;;-9.30;99.90;;;;;;5031875;28;20666;-78
2024/01/08 00:45:18;;;;;;;18.17;7.50;;;-9.30;99.90;;;;;;5031797;28;20787;-80
2024/01/08 00:48:06;;;;;;;18.53;7.73;;;-9.20;99.90;;;;;;5033123;28;20192;-78
2024/01/08 00:50:53;;;;;;;17.10;7.83;;;-9.20;99.90;;;;;;5032634;28;20197;-78
2024/01/08 00:53:40;;;;;;;17.83;7.37;;;-9.30;99.90;;;;;;5032591;28;20199;-78
2024/01/08 00:56:27;;;;;;;18.77;8.03;;;-9.20;99.90;;;;;;5031948;28;20344;-77
2024/01/08 00:59:15;;;;;;;16.67;7.67;;;-9.20;99.90;;;;;;5033788;28;20190;-78
2024/01/08 01:02:03;;;;;;;18.30;7.53;;;-9.20;99.90;;;;;;5032009;28;20193;-79
2024/01/08 01:04:50;;;;;;;14.13;7.20;;;-9.30;99.90;;;;;;5032439;28;20540;-78
2024/01/08 01:07:38;;;;;;;14.63;7.07;;;-9.30;99.90;;;;;;5032237;28;20234;-78
2024/01/08 01:10:25;;;;;;;16.27;7.87;;;-9.30;99.90;;;;;;5033380;28;20200;-79
2024/01/08 01:13:13;;;;;;;16.77;7.57;;;-9.30;99.90;;;;;;5018298;28;20257;-78
2024/01/08 01:16:01;;;;;;;14.87;7.57;;;-9.30;99.90;;;;;;5032892;28;20799;-78
2024/01/08 01:18:48;;;;;;;15.80;7.37;;;-9.30;99.90;;;;;;5034634;28;20721;-79
2024/01/08 01:21:35;;;;;;;21.00;7.40;;;-9.30;99.90;;;;;;5032891;28;20205;-78
2024/01/08 01:24:23;;;;;;;16.93;6.80;;;-9.30;99.90;;;;;;5031381;28;20219;-78
2024/01/08 01:27:10;;;;;;;16.23;7.27;;;-9.40;99.90;;;;;;5035637;28;20211;-78
2024/01/08 01:29:57;;;;;;;20.23;8.07;;;-9.30;99.90;;;;;;5034890;28;20701;-78
2024/01/08 01:32:45;;;;;;;18.63;7.70;;;-9.30;99.90;;;;;;5033876;28;20280;-78
2024/01/08 01:35:32;;;;;;;20.40;8.07;;;-9.30;99.90;;;;;;5032341;28;20212;-78
2024/01/08 01:38:21;;;;;;;16.93;7.57;;;-9.30;99.90;;;;;;5031637;28;20571;-78
2024/01/08 01:41:08;;;;;;;16.90;7.23;;;-9.40;99.90;;;;;;5032253;28;20219;-78
2024/01/08 01:43:56;;;;;;;18.40;7.97;;;-9.40;99.90;;;;;;5032140;28;20217;-78
2024/01/08 01:46:48;;;;;;;15.50;7.80;;;-9.40;99.90;;;;;;5033366;28;20678;-78
2024/01/08 01:49:36;;;;;;;18.17;7.37;;;-9.40;99.90;;;;;;5035853;28;20193;-78
2024/01/08 01:52:25;;;;;;;19.30;7.40;;;-9.50;99.90;;;;;;5035323;28;20254;-78
2024/01/08 01:55:13;;;;;;;20.73;7.47;;;-9.50;99.90;;;;;;5034687;28;20200;-78
2024/01/08 01:58:02;;;;;;;19.70;7.97;;;-9.40;99.90;;;;;;5035741;28;20213;-78
2024/01/08 02:00:49;;;;;;;16.43;7.63;;;-9.40;99.90;;;;;;5034839;28;20647;-78
2024/01/08 02:03:37;;;;;;;17.43;7.70;;;-9.40;99.90;;;;;;5035151;28;20551;-78
2024/01/08 02:06:27;;;;;;;18.27;8.47;;;-9.40;99.90;;;;;;5035599;28;20272;-77
2024/01/08 02:09:15;;;;;;;18.63;8.47;;;-9.50;99.90;;;;;;5035451;28;20676;-78
2024/01/08 02:12:03;;;;;;;19.43;8.20;;;-9.50;99.90;;;;;;5034547;28;20216;-78
2024/01/08 02:14:50;;;;;;;18.73;8.37;;;-9.40;99.90;;;;;;5035745;28;20286;-78
2024/01/08 02:17:38;;;;;;;17.27;8.30;;;-9.40;99.90;;;;;;5035450;28;20206;-78
2024/01/08 02:20:26;;;;;;;19.73;7.73;;;-9.40;99.90;;;;;;5036356;28;20206;-77
2024/01/08 02:23:13;;;;;;;17.90;8.40;;;-9.50;99.90;;;;;;5035504;28;20201;-78
2024/01/08 02:26:00;;;;;;;21.40;8.37;;;-9.50;99.90;;;;;;5034041;28;20299;-78
2024/01/08 02:28:48;;;;;;;17.70;8.13;;;-9.60;99.90;;;;;;5035274;28;20204;-78
2024/01/08 02:31:35;;;;;;;16.70;7.83;;;-9.60;99.90;;;;;;5035673;28;20289;-78
2024/01/08 02:34:22;;;;;;;20.57;7.83;;;-9.70;99.90;;;;;;5034957;28;20279;-78
2024/01/08 02:37:12;;;;;;;16.53;7.70;;;-9.70;99.90;;;;;;5035044;28;20469;-78
2024/01/08 02:39:59;;;;;;;23.07;9.80;;;-9.70;99.90;;;;;;5035089;28;20265;-78
2024/01/08 02:42:46;;;;;;;23.10;8.40;;;-9.70;99.90;;;;;;5034538;28;20216;-78
2024/01/08 02:45:34;;;;;;;20.87;8.77;;;-9.70;99.90;;;;;;5034377;28;20277;-78
2024/01/08 02:48:21;;;;;;;20.67;8.43;;;-9.70;99.90;;;;;;5034722;28;20197;-78
2024/01/08 02:51:09;;;;;;;17.60;7.83;;;-9.80;99.90;;;;;;5034818;28;20769;-78
2024/01/08 02:53:56;;;;;;;20.43;8.27;;;-9.90;99.90;;;;;;5034849;28;20282;-78
2024/01/08 02:56:44;;;;;;;16.07;8.10;;;-10.10;99.90;;;;;;5034826;28;20207;-78
2024/01/08 02:59:31;;;;;;;22.40;9.10;;;-10.10;99.90;;;;;;5034487;28;20658;-78
2024/01/08 03:02:19;;;;;;;17.37;7.97;;;-10.20;99.90;;;;;;5034589;28;20197;-78
2024/01/08 03:05:06;;;;;;;22.77;8.90;;;-10.30;99.90;;;;;;5033255;28;20227;-76
2024/01/08 03:07:54;;;;;;;19.57;8.83;;;-10.20;99.90;;;;;;5034442;28;20188;-78
2024/01/08 03:10:41;;;;;;;17.60;8.63;;;-10.30;99.90;;;;;;5033154;28;20682;-77
2024/01/08 03:13:29;;;;;;;18.93;7.90;;;-10.30;99.90;;;;;;5033600;28;20216;-77
2024/01/08 03:16:19;;;;;;;19.60;8.17;;;-10.40;99.90;;;;;;5033082;28;20281;-78
2024/01/08 03:19:07;;;;;;;17.93;7.90;;;-10.40;99.90;;;;;;5032903;28;20207;-77
2024/01/08 03:21:54;;;;;;;22.33;8.90;;;-10.50;99.90;;;;;;5034661;28;20203;-77
2024/01/08 03:24:42;;;;;;;19.20;8.60;;;-10.40;99.90;;;;;;5034633;28;20589;-78
2024/01/08 03:27:29;;;;;;;20.70;8.23;;;-10.40;99.90;;;;;;5032733;28;20216;-77
2024/01/08 03:30:16;;;;;;;14.90;7.60;;;-10.50;99.90;;;;;;5034644;28;20200;-78
2024/01/08 03:33:04;;;;;;;18.17;8.40;;;-10.40;99.90;;;;;;5033304;28;20189;-78
2024/01/08 03:35:53;;;;;;;19.67;8.67;;;-10.40;99.90;;;;;;5033818;28;20270;-78
2024/01/08 03:38:42;;;;;;;18.73;7.37;;;-10.50;99.90;;;;;;5032643;28;20759;-78
2024/01/08 03:41:29;;;;;;;18.50;8.10;;;-10.50;99.90;;;;;;5034061;28;20224;-78
2024/01/08 03:44:16;;;;;;;16.53;7.30;;;-10.50;99.90;;;;;;5033456;28;20222;-78
2024/01/08 03:47:04;;;;;;;19.03;8.70;;;-10.40;99.90;;;;;;5032424;28;20193;-78
2024/01/08 03:49:51;;;;;;;20.13;8.03;;;-10.50;99.90;;;;;;5033961;28;20211;-78
2024/01/08 03:52:39;;;;;;;18.43;8.13;;;-10.50;99.90;;;;;;5033164;28;20198;-78
2024/01/08 03:55:26;;;;;;;21.60;8.60;;;-10.60;99.90;;;;;;5032712;28;20188;-78
2024/01/08 03:58:14;;;;;;;18.47;8.07;;;-10.70;99.90;;;;;;5033639;28;20227;-76
2024/01/08 04:01:01;;;;;;;17.20;7.40;;;-10.70;99.90;;;;;;5033275;28;20195;-78
2024/01/08 04:03:48;;;;;;;18.97;8.40;;;-10.80;99.90;;;;;;5033077;28;20296;-78
2024/01/08 04:06:36;;;;;;;20.57;8.90;;;-10.80;99.90;;;;;;5032960;28;20561;-77
2024/01/08 04:09:23;;;;;;;21.43;8.37;;;-10.80;99.90;;;;;;5032524;28;20244;-78
2024/01/08 04:12:12;;;;;;;17.50;7.37;;;-10.90;99.90;;;;;;5032038;28;20211;-77
2024/01/08 04:14:59;;;;;;;20.07;8.33;;;-10.90;99.90;;;;;;5033076;28;20245;-78
2024/01/08 04:17:46;;;;;;;18.93;8.10;;;-11.00;99.90;;;;;;5032696;28;20200;-78
2024/01/08 04:20:34;;;;;;;18.67;7.97;;;-11.00;99.90;;;;;;5032777;28;20588;-78
2024/01/08 04:23:22;;;;;;;20.17;8.27;;;-11.00;99.90;;;;;;5033038;28;20203;-78
2024/01/08 04:26:16;;;;;;;18.27;7.90;;;-11.00;99.90;;;;;;5032747;28;20691;-78
2024/01/08 04:29:04;;;;;;;20.03;7.77;;;-11.00;99.90;;;;;;5033041;28;20204;-78
2024/01/08 04:31:52;;;;;;;18.43;7.67;;;-10.90;99.90;;;;;;5032969;28;20214;-77
2024/01/08 04:34:39;;;;;;;19.30;8.40;;;-10.80;99.90;;;;;;5031399;28;20632;-78
2024/01/08 04:37:26;;;;;;;19.77;8.23;;;-10.90;99.90;;;;;;5032740;28;20213;-77
2024/01/08 04:40:14;;;;;;;18.90;7.70;;;-10.90;99.90;;;;;;5034032;28;20192;-78
2024/01/08 04:43:02;;;;;;;20.10;7.40;;;-10.90;99.90;;;;;;5032007;28;20338;-78
2024/01/08 04:45:49;;;;;;;15.30;7.07;;;-10.90;99.90;;;;;;5032532;28;20267;-78
2024/01/08 04:48:37;;;;;;;15.17;7.43;;;-10.90;99.90;;;;;;5032614;28;20243;-78
2024/01/08 04:51:25;;;;;;;22.90;8.37;;;-11.00;99.90;;;;;;5033129;28;20240;-77
2024/01/08 04:54:12;;;;;;;15.27;7.77;;;-11.00;99.90;;;;;;5032610;28;20210;-78
2024/01/08 04:57:00;;;;;;;14.37;7.10;;;-11.10;99.90;;;;;;5032559;28;20217;-77
2024/01/08 04:59:47;;;;;;;15.73;7.40;;;-11.10;99.90;;;;;;5032020;28;20236;-77
2024/01/08 05:02:35;;;;;;;17.30;7.33;;;-11.10;99.90;;;;;;5031520;28;20199;-77
2024/01/08 05:05:22;;;;;;;16.03;7.10;;;-11.10;99.90;;;;;;5031549;28;20254;-77
2024/01/08 05:08:10;;;;;;;18.27;7.43;;;-11.20;99.90;;;;;;5032884;28;20580;-77
2024/01/08 05:10:59;;;;;;;20.33;7.83;;;-11.20;99.90;;;;;;5032472;28;20208;-78
2024/01/08 05:13:46;;;;;;;16.03;7.87;;;-11.10;99.90;;;;;;5032720;28;20249;-77
2024/01/08 05:16:34;;;;;;;16.57;7.00;;;-11.10;99.90;;;;;;5031404;28;20308;-78
2024/01/08 05:19:21;;;;;;;20.77;8.57;;;-11.10;99.90;;;;;;5031175;28;20655;-78
2024/01/08 05:22:08;;;;;;;16.20;7.77;;;-11.10;99.90;;;;;;5035770;28;20230;-78
2024/01/08 05:24:56;;;;;;;18.43;7.90;;;-11.20;99.90;;;;;;5035316;28;20620;-78
2024/01/08 05:27:43;;;;;;;18.77;7.30;;;-11.20;99.90;;;;;;5036500;28;20273;-77
2024/01/08 05:30:31;;;;;;;22.83;8.40;;;-11.10;99.90;;;;;;5034441;28;20664;-78
2024/01/08 05:33:20;;;;;;;16.23;6.97;;;-11.20;99.90;;;;;;5035130;28;20197;-78
2024/01/08 05:36:07;;;;;;;24.43;7.77;;;-11.20;99.90;;;;;;5035062;28;20229;-78
2024/01/08 05:38:59;;;;;;;21.20;7.90;;;-11.30;99.90;;;;;;5036148;28;20192;-78
2024/01/08 05:41:46;;;;;;;18.00;7.73;;;-11.40;99.90;;;;;;5035081;28;20217;-78
2024/01/08 05:44:35;;;;;;;17.03;7.43;;;-11.30;99.90;;;;;;5037057;28;20291;-78
2024/01/08 05:47:22;;;;;;;18.30;7.43;;;-11.30;99.90;;;;;;5036187;28;20197;-78
2024/01/08 05:50:10;;;;;;;20.57;8.00;;;-11.20;99.90;;;;;;5035397;28;20198;-77
2024/01/08 05:52:57;;;;;;;17.23;7.60;;;-11.20;99.90;;;;;;5036036;28;20291;-78
2024/01/08 05:55:45;;;;;;;18.37;7.97;;;-11.30;99.90;;;;;;5036234;28;20231;-77
2024/01/08 05:58:33;;;;;;;17.27;7.17;;;-11.30;99.90;;;;;;5036208;28;20283;-78
2024/01/08 06:01:21;;;;;;;17.63;7.63;;;-11.30;99.90;;;;;;5034514;28;20315;-78
2024/01/08 06:04:08;;;;;;;16.33;7.47;;;-11.30;99.90;;;;;;5033742;28;20674;-77
2024/01/08 06:06:56;;;;;;;18.33;7.97;;;-11.30;99.90;;;;;;5035325;28;20228;-78
2024/01/08 06:09:43;;;;;;;18.23;7.03;;;-11.30;99.90;;;;;;5035142;28;20531;-78
2024/01/08 06:12:31;;;;;;;20.37;8.13;;;-11.40;99.90;;;;;;5034877;28;20233;-77
2024/01/08 06:15:18;;;;;;;13.90;7.27;;;-11.50;99.90;;;;;;5034400;28;20236;-78
2024/01/08 06:18:07;;;;;;;20.37;8.13;;;-11.50;99.90;;;;;;5035585;28;20244;-78
2024/01/08 06:20:54;;;;;;;17.50;7.77;;;-11.50;99.90;;;;;;5034089;28;20196;-78
2024/01/08 06:23:42;;;;;;;15.80;7.27;;;-11.60;99.90;;;;;;5035640;28;20562;-77
2024/01/08 06:26:30;;;;;;;16.10;6.97;;;-11.60;99.90;;;;;;5033997;28;20230;-77
2024/01/08 06:29:18;;;;;;;20.10;7.93;;;-11.60;99.90;;;;;;5033973;28;20233;-78
2024/01/08 06:32:06;;;;;;;16.00;6.87;;;-11.70;99.90;;;;;;5034314;28;20197;-78
2024/01/08 06:34:53;;;;;;;15.27;7.07;;;-11.70;99.90;;;;;;5034616;28;20207;-77
2024/01/08 06:37:42;;;;;;;17.03;7.43;;;-11.80;99.90;;;;;;5034533;28;20255;-78
2024/01/08 06:40:30;;;;;;;15.17;7.07;;;-11.90;99.90;;;;;;5033746;28;20205;-78
2024/01/08 06:43:17;;;;;;;18.73;7.60;;;-11.90;99.90;;;;;;5033803;28;20237;-78
2024/01/08 06:46:07;;;;;;;15.50;7.87;;;-11.90;99.90;;;;;;5034937;28;20221;-78
2024/01/08 06:48:55;;;;;;;15.03;7.23;;;-11.90;99.90;;;;;;5034655;28;20207;-78
2024/01/08 06:51:43;;;;;;;15.67;7.33;;;-11.90;99.90;;;;;;5035585;28;20207;-78
2024/01/08 06:54:30;;;;;;;25.00;8.13;;;-11.90;99.90;;;;;;5034498;28;20349;-78
2024/01/08 06:57:18;;;;;;;15.03;7.30;;;-12.00;99.90;;;;;;5032685;28;20211;-78
2024/01/08 07:00:07;;;;;;;16.43;6.97;;;-12.00;99.90;;;;;;5033542;28;20211;-78
2024/01/08 07:02:56;;;;;;;16.27;7.23;;;-12.00;99.90;;;;;;5033585;28;20187;-78
2024/01/08 07:05:43;;;;;;;18.73;7.43;;;-12.10;99.90;;;;;;5033984;28;20227;-78
2024/01/08 07:08:34;;;;;;;17.40;7.73;;;-12.10;99.90;;;;;;5033638;28;20206;-78
2024/01/08 07:11:23;;;;;;;18.07;7.10;;;-12.20;99.90;;;;;;5032995;28;20305;-78
2024/01/08 07:14:11;;;;;;;21.37;7.53;;;-12.10;99.90;;;;;;5033817;28;20581;-78
2024/01/08 07:16:58;;;;;;;17.73;7.47;;;-12.00;99.90;;;;;;5033362;28;20202;-78
2024/01/08 07:19:47;;;;;;;14.40;6.77;;;-12.10;99.90;;;;;;5034104;28;20200;-78
2024/01/08 07:22:34;;;;;;;17.80;7.20;;;-12.10;99.90;;;;;;5034507;28;20195;-78
2024/01/08 07:25:22;;;;;;;16.13;7.07;;;-12.00;99.90;;;;;;5032752;28;20242;-78
2024/01/08 07:28:11;;;;;;;17.03;7.40;;;-12.10;99.90;;;;;;5033970;28;20210;-78
2024/01/08 07:31:00;;;;;;;15.87;7.07;;;-12.00;99.90;;;;;;5034661;28;20199;-79
2024/01/08 07:33:51;;;;;;;19.27;7.50;;;-12.00;99.90;;;;;;5033333;28;20637;-78
2024/01/08 07:36:43;;;;;;;18.13;6.93;;;-12.10;99.90;;;;;;5033261;28;20550;-78
2024/01/08 07:39:31;;;;;;;16.50;8.13;;;-12.10;99.90;;;;;;5033230;28;20199;-78
2024/01/08 07:42:21;;;;;;;19.50;7.77;;;-12.00;99.90;;;;;;5032891;28;20718;-77
2024/01/08 07:45:08;;;;;;;17.17;7.50;;;-11.90;99.90;;;;;;5032870;28;20557;-78
2024/01/08 07:47:57;;;;;;;17.43;7.27;;;-11.90;99.90;;;;;;5033270;28;20222;-78
2024/01/08 07:50:45;;;;;;;13.33;6.43;;;-12.00;99.90;;;;;;5033353;28;20203;-77
2024/01/08 07:53:33;;;;;;;16.83;7.50;;;-11.90;99.90;;;;;;5033723;28;20559;-78
2024/01/08 07:56:26;;;;;;;18.33;7.10;;;-11.80;99.90;;;;;;5033267;28;20494;-78
2024/01/08 07:59:13;;;;;;;13.03;6.77;;;-11.70;99.90;;;;;;5032337;28;20193;-78
2024/01/08 08:02:01;;;;;;;14.00;6.80;;;-11.50;99.90;;;;;;5032146;28;20267;-79
2024/01/08 08:05:01;;;;;;;14.07;6.63;;;-11.30;99.90;;;;;;5069570;28;20886;-79
2024/01/08 08:07:49;;;;;;;18.33;7.30;;;-11.40;99.90;;;;;;5069657;28;20229;-79
2024/01/08 08:10:37;;;;;;;19.23;7.40;;;-11.40;99.90;;;;;;5067947;28;20200;-80
2024/01/08 08:13:29;;;;;;;17.00;7.20;;;-11.40;99.90;;;;;;5049194;28;20187;-79
2024/01/08 08:16:17;;;;;;;18.83;7.63;;;-11.20;99.90;;;;;;5048335;28;20594;-78
2024/01/08 08:19:07;;;;;;;19.87;7.40;;;-11.00;99.90;;;;;;5047762;28;20215;-79
2024/01/08 08:21:55;;;;;;;23.03;8.20;;;-10.70;99.90;;;;;;5048840;28;20207;-78
2024/01/08 08:24:44;;;;;;;19.80;7.77;;;-10.40;99.90;;;;;;5048214;28;20287;-78
2024/01/08 08:27:32;;;;;;;15.83;7.23;;;-10.10;99.90;;;;;;5048389;28;20301;-78
2024/01/08 08:30:22;;;;;;;16.83;7.80;;;-10.30;99.90;;;;;;5048209;28;20195;-79
2024/01/08 08:33:09;;;;;;;17.77;7.17;;;-10.10;99.90;;;;;;5048624;28;20191;-78
2024/01/08 08:35:57;;;;;;;20.63;7.80;;;-9.90;99.90;;;;;;5048722;28;20213;-78
2024/01/08 08:38:45;;;;;;;15.30;7.17;;;-9.70;99.90;;;;;;5048299;28;20215;-77
2024/01/08 08:41:39;;;;;;;15.00;7.50;;;-9.40;99.90;;;;;;5048291;28;20239;-76
2024/01/08 08:44:26;;;;;;;17.60;7.37;;;-9.20;99.90;;;;;;5048461;28;20224;-77
2024/01/08 08:47:13;;;;;;;18.50;7.43;;;-9.20;99.90;;;;;;5048327;28;20594;-76
2024/01/08 08:50:01;;;;;;;18.87;7.37;;;-9.40;99.90;;;;;;5047581;28;20191;-76
2024/01/08 08:52:48;;;;;;;18.30;7.93;;;-9.30;99.90;;;;;;5049304;28;20586;-79
2024/01/08 08:55:36;;;;;;;17.30;7.60;;;-9.30;99.90;;;;;;5048636;28;20210;-78
2024/01/08 08:58:23;;;;;;;17.70;8.00;;;-9.30;99.90;;;;;;5048181;28;20547;-77
2024/01/08 09:01:14;;;;;;;20.33;8.20;;;-9.40;99.90;;;;;;5048588;28;20199;-76
2024/01/08 09:04:02;;;;;;;21.37;7.63;;;-9.50;99.90;;;;;;5047787;28;20237;-76
2024/01/08 09:06:49;;;;;;;23.33;7.93;;;-9.60;99.90;;;;;;5047972;28;20247;-76
2024/01/08 09:09:39;;;;;;;21.50;8.00;;;-9.70;99.90;;;;;;5048104;28;20192;-76
2024/01/08 09:12:27;;;;;;;19.50;8.47;;;-9.80;99.90;;;;;;5047294;28;20688;-75
2024/01/08 09:15:14;;;;;;;16.13;7.83;;;-9.80;99.90;;;;;;5040373;28;20206;-76
2024/01/08 09:18:02;;;;;;;25.75;12.65;;;-9.90;99.90;;;;;;5033633;28;20426;-77
2024/01/08 09:20:49;;;;;;;21.40;8.93;;;-10.20;99.90;;;;;;5035168;28;20555;-79
2024/01/08 09:23:38;;;;;;;17.43;8.57;;;-10.10;99.90;;;;;;5033921;28;20228;-78
2024/01/08 09:26:25;;;;;;;19.47;8.53;;;-10.10;99.90;;;;;;5033800;28;20207;-78
2024/01/08 09:29:13;;;;;;;20.87;8.30;;;-10.20;99.90;;;;;;5034560;28;20200;-79
2024/01/08 09:32:00;;;;;;;16.47;7.40;;;-10.20;99.90;;;;;;5034295;28;20192;-78
2024/01/08 09:34:48;;;;;;;18.77;8.20;;;-10.10;99.90;;;;;;5033674;28;20201;-79
2024/01/08 09:37:35;;;;;;;18.57;7.90;;;-10.10;99.90;;;;;;5033671;28;20201;-78
2024/01/08 09:40:23;;;;;;;19.37;7.80;;;-10.00;99.90;;;;;;5034762;28;20281;-79
2024/01/08 09:43:14;;;;;;;16.90;8.03;;;-10.00;99.90;;;;;;5034467;28;20568;-77
2024/01/08 09:46:06;;;;;;;17.00;8.07;;;-10.00;99.90;;;;;;5033298;28;20192;-78
2024/01/08 09:48:54;;;;;;;18.93;7.30;;;-9.90;99.90;;;;;;5034625;28;20199;-78
2024/01/08 09:51:43;;;;;;;22.27;8.50;;;-10.00;99.90;;;;;;5033871;28;20211;-78
2024/01/08 09:54:33;;;;;;;19.73;8.23;;;-9.90;99.90;;;;;;5033748;28;20202;-78
2024/01/08 09:57:20;;;;;;;15.03;7.33;;;-9.90;99.90;;;;;;5032993;28;20296;-78
2024/01/08 10:00:09;;;;;;;19.50;8.40;;;-9.80;99.90;;;;;;5033629;28;20219;-78
2024/01/08 10:02:58;;;;;;;16.27;7.17;;;-9.90;99.90;;;;;;5033390;28;20289;-77
2024/01/08 10:05:45;;;;;;;14.27;6.83;;;-10.00;99.90;;;;;;5033427;28;20208;-78
2024/01/08 10:08:33;;;;;;;19.70;7.63;;;-9.90;99.90;;;;;;5033441;28;20195;-77
2024/01/08 10:11:21;;;;;;;16.37;8.30;;;-9.90;99.90;;;;;;5033903;28;20300;-77
2024/01/08 10:14:09;;;;;;;21.23;8.23;;;-9.90;99.90;;;;;;5033304;28;20269;-78
2024/01/08 10:16:56;;;;;;;19.83;7.13;;;-10.00;99.90;;;;;;5033664;28;20202;-79
2024/01/08 10:19:49;;;;;;;18.00;7.63;;;-9.90;99.90;;;;;;5033338;28;20186;-77
2024/01/08 10:22:37;;;;;;;18.73;8.03;;;-9.80;99.90;;;;;;5033345;28;20208;-76
2024/01/08 10:25:25;;;;;;;21.57;9.07;;;-9.80;99.90;;;;;;5033308;28;20193;-78
2024/01/08 10:28:12;;;;;;;15.90;8.07;;;-9.70;99.90;;;;;;5032656;28;20714;-77
2024/01/08 10:31:00;;;;;;;17.03;8.40;;;-9.70;99.90;;;;;;5031778;28;20683;-78
2024/01/08 10:33:48;;;;;;;21.57;8.03;;;-9.60;99.90;;;;;;5032954;28;20559;-79
2024/01/08 10:36:37;;;;;;;18.07;8.07;;;-9.50;99.90;;;;;;5034070;28;20192;-78
2024/01/08 10:39:27;;;;;;;21.70;7.83;;;-9.50;99.90;;;;;;5033259;28;20676;-79
2024/01/08 10:42:30;;;;;;;19.33;8.23;;;-9.60;99.90;;;;;;5032533;28;20220;-76
2024/01/08 10:45:17;;;;;;;18.90;7.87;;;-9.60;99.90;;;;;;5031721;28;20810;-77
2024/01/08 10:48:15;;;;;;;16.40;7.63;;;-9.50;99.90;;;;;;5032623;28;20215;-79
2024/01/08 10:51:06;;;;;;;17.63;7.83;;;-9.50;99.90;;;;;;5034080;28;20207;-78
2024/01/08 10:53:55;;;;;;;20.53;8.87;;;-9.60;99.90;;;;;;5032456;28;20203;-79
2024/01/08 10:56:42;;;;;;;20.03;8.40;;;-9.60;99.90;;;;;;5032494;28;20426;-78
2024/01/08 10:59:32;;;;;;;20.57;8.27;;;-9.50;99.90;;;;;;5031948;28;20570;-79
2024/01/08 11:02:20;;;;;;;17.87;7.80;;;-9.50;99.90;;;;;;5033001;28;20208;-79
2024/01/08 11:05:08;;;;;;;20.53;7.67;;;-9.50;99.90;;;;;;5033407;28;20256;-79
2024/01/08 11:07:56;;;;;;;19.93;8.50;;;-9.50;99.90;;;;;;5032933;28;20200;-78
2024/01/08 11:10:44;;;;;;;15.87;7.63;;;-9.50;99.90;;;;;;5032319;28;20204;-77
2024/01/08 11:13:31;;;;;;;21.37;8.50;;;-9.30;99.90;;;;;;5032374;28;20204;-78
2024/01/08 11:16:28;;;;;;;20.53;8.47;;;-9.20;99.90;;;;;;5032581;28;20347;-79
2024/01/08 11:19:18;;;;;;;25.37;8.30;;;-9.20;99.90;;;;;;5032255;28;20197;-80
2024/01/08 11:22:10;;;;;;;20.03;7.97;;;-9.10;99.90;;;;;;5032754;28;20606;-78
2024/01/08 11:25:03;;;;;;;18.73;8.00;;;-9.00;99.90;;;;;;5032728;28;20229;-80
2024/01/08 11:27:50;;;;;;;19.27;8.03;;;-9.00;99.90;;;;;;5032111;28;20226;-77
2024/01/08 11:30:37;;;;;;;19.37;8.17;;;-9.00;99.90;;;;;;5032216;28;20197;-79
2024/01/08 11:34:09;;;;;;;16.83;7.73;;;-8.90;99.90;;;;;;5032622;28;20194;-79
2024/01/08 11:37:16;;;;;;;19.83;8.07;;;-9.00;99.90;;;;;;5010449;28;20205;-79
2024/01/08 11:40:10;;;;;;;18.50;8.43;;;-9.00;99.90;;;;;;4996867;28;20569;-78
2024/01/08 11:42:58;;;;;;;19.70;8.23;;;-8.90;99.90;;;;;;5010909;28;20292;-79
2024/01/08 11:45:47;;;;;;;17.83;8.10;;;-8.70;99.90;;;;;;5010859;28;20582;-79
2024/01/08 11:48:34;;;;;;;19.77;8.37;;;-8.40;99.90;;;;;;4997709;28;20236;-79
2024/01/08 11:51:22;;;;;;;20.17;8.80;;;-7.80;99.90;;;;;;5011458;28;20277;-77
2024/01/08 11:54:18;;;;;;;20.73;10.03;;;-7.10;99.90;;;;;;4997183;28;20619;-79
2024/01/08 11:57:06;;;;;;;20.57;8.63;;;-6.30;99.90;;;;;;4995963;28;20216;-78
2024/01/08 11:59:54;;;;;;;20.53;9.03;;;-5.60;99.90;;;;;;4997660;28;20200;-78
2024/01/08 12:02:41;;;;;;;20.30;8.87;;;-5.30;99.90;;;;;;5008833;28;20211;-79
2024/01/08 12:05:29;;;;;;;20.37;9.17;;;-5.10;99.90;;;;;;4997775;28;20231;-79
2024/01/08 12:08:18;;;;;;;19.83;8.90;;;-5.00;99.90;;;;;;5011222;28;20203;-76
2024/01/08 12:11:05;;;;;;;20.33;9.23;;;-5.10;99.90;;;;;;5011012;28;20220;-78
2024/01/08 12:13:53;;;;;;;23.83;9.37;;;-5.30;99.90;;;;;;5030924;28;20207;-77
2024/01/08 12:16:40;;;;;;;20.70;9.33;;;-5.80;99.90;;;;;;5031071;28;20199;-78
2024/01/08 12:19:49;;;;;;;21.27;9.30;;;-6.20;99.90;;;;;;5032612;28;20196;-78
2024/01/08 12:22:37;;;;;;;23.30;9.87;;;-6.30;99.90;;;;;;5030964;28;20196;-78
2024/01/08 12:25:24;;;;;;;20.97;10.50;;;-6.40;99.90;;;;;;5031817;28;20218;-78
2024/01/08 12:28:13;;;;;;;21.70;9.67;;;-6.70;99.90;;;;;;5030487;28;20345;-78
2024/01/08 12:31:01;;;;;;;22.10;9.50;;;-7.00;99.90;;;;;;5031683;28;20192;-78
2024/01/08 12:33:48;;;;;;;24.37;9.47;;;-7.40;99.90;;;;;;5031390;28;20202;-78
2024/01/08 12:36:36;;;;;;;25.23;9.77;;;-7.70;99.90;;;;;;5031631;28;20304;-78
2024/01/08 12:39:25;;;;;;;22.77;9.17;;;-7.80;99.90;;;;;;5031282;28;20199;-80
2024/01/08 12:42:17;;;;;;;22.83;9.40;;;-7.80;99.90;;;;;;5031368;28;20241;-77
2024/01/08 12:45:07;;;;;;;25.73;10.00;;;-7.90;99.90;;;;;;5031175;28;20221;-78
2024/01/08 12:47:54;;;;;;;22.87;9.50;;;-8.00;99.90;;;;;;5031209;28;20227;-78
2024/01/08 12:50:43;;;;;;;21.87;9.43;;;-8.00;99.90;;;;;;5033779;28;20650;-77
2024/01/08 12:53:30;;;;;;;21.70;9.00;;;-8.10;99.90;;;;;;5034626;28;20204;-77
2024/01/08 12:56:17;;;;;;;20.20;9.00;;;-8.30;99.90;;;;;;5035805;28;20267;-78
2024/01/08 12:59:05;;;;;;;22.00;9.13;;;-8.30;99.90;;;;;;5034379;28;20665;-78
2024/01/08 13:01:54;;;;;;;21.57;8.27;;;-8.30;99.90;;;;;;5034722;28;20281;-78
2024/01/08 13:04:42;;;;;;;22.20;8.73;;;-8.40;99.90;;;;;;5034707;28;20249;-78
2024/01/08 13:07:30;;;;;;;21.93;8.60;;;-8.30;99.90;;;;;;5034293;28;20291;-80
2024/01/08 13:10:17;;;;;;;19.93;8.47;;;-8.10;99.90;;;;;;5034752;28;20279;-79
2024/01/08 13:13:04;;;;;;;24.40;8.67;;;-7.60;99.90;;;;;;5034189;28;20210;-77
2024/01/08 13:15:51;;;;;;;23.53;9.63;;;-7.10;99.90;;;;;;5034464;28;20670;-77
2024/01/08 13:18:39;;;;;;;23.83;9.20;;;-6.60;99.90;;;;;;5034081;28;20465;-78
2024/01/08 13:21:26;;;;;;;19.47;8.50;;;-6.30;99.90;;;;;;5035597;28;20198;-80
2024/01/08 13:24:15;;;;;;;21.77;8.83;;;-5.90;99.90;;;;;;5034320;28;20207;-80
2024/01/08 13:27:03;;;;;;;20.20;9.00;;;-5.80;99.90;;;;;;5034944;28;20798;-79
2024/01/08 13:29:51;;;;;;;21.03;9.70;;;-5.80;99.90;;;;;;5033333;28;20274;-80
2024/01/08 13:32:38;;;;;;;21.80;9.20;;;-6.00;99.90;;;;;;5034337;28;20203;-79
2024/01/08 13:35:26;;;;;;;20.70;9.13;;;-6.10;99.90;;;;;;5034740;28;20566;-80
2024/01/08 13:38:13;;;;;;;18.90;9.37;;;-6.10;99.90;;;;;;5034249;28;20203;-78
2024/01/08 13:41:01;;;;;;;25.10;9.33;;;-6.20;99.90;;;;;;5033344;28;20207;-78
2024/01/08 13:43:49;;;;;;;22.00;8.97;;;-6.20;99.90;;;;;;5034050;28;20642;-81
2024/01/08 13:46:36;;;;;;;21.37;8.93;;;-6.20;99.90;;;;;;5034669;28;20199;-81
2024/01/08 13:49:24;;;;;;;19.27;9.20;;;-6.70;99.90;;;;;;5032957;28;20195;-79
2024/01/08 13:52:11;;;;;;;23.77;9.17;;;-7.10;99.90;;;;;;5034038;28;20605;-80
2024/01/08 13:54:59;;;;;;;19.13;9.07;;;-7.20;99.90;;;;;;5033459;28;20342;-80
2024/01/08 13:57:47;;;;;;;19.93;8.43;;;-7.30;99.90;;;;;;5033796;28;20238;-81
2024/01/08 14:00:34;;;;;;;25.90;9.03;;;-7.20;99.90;;;;;;5033348;28;20203;-79
2024/01/08 14:03:22;;;;;;;22.27;9.03;;;-7.20;99.90;;;;;;5033609;28;20227;-80
2024/01/08 14:06:11;;;;;;;20.83;9.63;;;-7.20;99.90;;;;;;5033680;28;20300;-79
2024/01/08 14:08:59;;;;;;;25.37;10.13;;;-7.10;99.90;;;;;;5033639;28;20714;-80
2024/01/08 14:11:48;;;;;;;23.03;9.23;;;-7.40;99.90;;;;;;5033769;28;20280;-79
2024/01/08 14:14:37;;;;;;;21.00;8.50;;;-7.60;99.90;;;;;;5034300;28;20196;-78
2024/01/08 14:17:25;;;;;;;22.73;9.53;;;-7.80;99.90;;;;;;5033065;28;20208;-80
2024/01/08 14:20:13;;;;;;;22.50;9.43;;;-8.10;99.90;;;;;;5033382;28;20198;-79